DIRECCIÓN GENERAL DE AERONÁUTICA CIVIL
DIRECCIÓN METEOROLÓGICA DE CHILE
INFORMACIÓN METAR Y TAF

FIR SANTIAGO

Estación: SCSE
METAR SCSE 251600Z 28008KT 9999 OVC009 14/12 Q1015=

TAF SCSE 251630Z 2518/2618 29010KT 9999 BKN010 TX16/2519Z TN11/2610Z TEMPO 2519/2522 SCT012 BECMG 2601/2603 VRB02KT BECMG 2606/2608 OVC010 TEMPO 2608/2612 3000 BR OVC008 BECMG 2614/2616 9999 BKN012 BECMG 2616/2618 30010KT=

Estación: SCER
NIL=

NIL=

Estación: SCRD
METAR SCRD 251600Z 30006KT 9999 4000N VCFG FEW007 15/12 Q1013=

TAF SCRD 251041Z 2512/2524 35003KT CAVOK TX31/2518Z TN18/2512Z TEMPO 2512/2513 0100 FG VV001 BECMG 2514/2516 18015KT=

Estación: SCVM
METAR SCVM 251600Z 30013KT CAVOK 17/13 Q1013=

TAF SCVM 251630Z 2518/2618 30010KT CAVOK TX20/2519Z TN10/2610Z BECMG 2600/2602 VRB02KT BECMG 2604/2606 BKN010 BECMG 2608/2610 2000 BR OVC005 TEMPO 2608/2612 0200 FG OVC001 BECMG 2614/2616 9999 BKN010 BECMG 2616/2618 29010KT=

Estación: SCTB
METAR SCTB 251600Z 27005KT CAVOK 28/13 Q1013=

TAF SCTB 251041Z 2512/2524 VRB02KT CAVOK TX31/2518Z TN14/2512Z TEMPO 2515/2518 7000 NSC BECMG 2516/2518 22007KT=

Estación: SCEL
METAR SCEL 251600Z 17009KT 130V220 CAVOK 29/08 Q1011 NOSIG=

TAF SCEL 251630Z 2518/2618 15005KT CAVOK TX31/2518Z TN10/2610Z BECMG 2518/2520 19012KT BECMG 2601/2603 15005KT BECMG 2607/2609 VRB02KT 7000 NSC TEMPO 2608/2612 0500 BCFG SCT005 BECMG 2614/2616 19010KT 9999=

Estación: SCSN
METAR SCSN 251600Z 30010KT 280V340 CAVOK 17/12 Q1012=

TAF SCSN 251040Z 2512/2524 VRB02KT CAVOK TX20/2518Z TN09/2512Z TEMPO 2512/2514 4500 BR NSC BECMG 2515/2517 27008KT=

Estación: SCRG
METAR SCRG 241800Z 17014KT CAVOK 28/13 Q1015=

TAF SCRG 241050Z 2412/2424 VRB02KT CAVOK TX30/2419Z TN18/2412Z BECMG 2414/2416 17013KT=

Estación: SCIC
METAR SCIC 251600Z 17006KT CAVOK 25/12 Q1011=

TAF SCIC 251042Z 2512/2524 17005KT CAVOK TX31/2518Z TN14/2512Z BECMG 2514/2516 21010KT=

Estación: SCCH
METAR SCCH 251600Z 22007KT CAVOK 24/13 Q1013=

TAF SCCH 251042Z 2512/2524 21005KT CAVOK TX30/2518Z TN14/2512Z=

Estación: SCIE
METAR SCIE 251600Z 24005KT 200V270 CAVOK 22/12 Q1013=

TAF SCIE 251630Z 2518/2618 23010KT CAVOK TX24/2519Z TN10/2610Z BECMG 2600/2602 18005KT BECMG 2606/2608 09005KT BECMG 2608/2610 VRB02KT=

Estación: SCGE
METAR SCGE 251600Z 18003KT CAVOK 21/10 Q1013=

TAF SCGE 251043Z 2512/2524 19008KT CAVOK TX31/2518Z TN14/2512Z=


Volver